createdAt,value
2023-04-23T00:04:40.520Z,69.47
2023-04-23T00:09:47.062Z,68.86
2023-04-23T00:14:52.798Z,69.62
2023-04-23T00:19:58.356Z,69.45
2023-04-23T00:25:04.003Z,69.49
2023-04-23T00:30:10.528Z,70.47
2023-04-23T00:35:16.384Z,70.06
2023-04-23T00:40:22.483Z,70.51
2023-04-23T00:45:27.909Z,69.76
2023-04-23T00:50:33.297Z,67.90
2023-04-23T00:55:38.906Z,69.96
2023-04-23T01:00:52.282Z,70.14
2023-04-23T01:05:58.070Z,70.44
2023-04-23T01:11:04.787Z,69.99
2023-04-23T01:16:11.980Z,69.20
2023-04-23T01:21:18.918Z,68.28
2023-04-23T01:26:25.301Z,68.96
2023-04-23T01:31:31.928Z,68.78
2023-04-23T01:36:38.283Z,67.18
2023-04-23T01:41:44.783Z,68.23
2023-04-23T01:46:50.342Z,67.52
2023-04-23T01:51:55.767Z,69.18
2023-04-23T01:57:01.586Z,69.42
2023-04-23T02:02:12.928Z,68.95
2023-04-23T02:07:18.536Z,68.85
2023-04-23T02:12:23.966Z,68.66
2023-04-23T02:17:29.943Z,69.19
2023-04-23T02:22:35.667Z,68.02
2023-04-23T02:27:43.338Z,66.42
2023-04-23T02:32:48.770Z,64.33
2023-04-23T02:37:55.337Z,62.01
2023-04-23T02:43:00.899Z,61.77
2023-04-23T02:48:06.527Z,60.87
2023-04-23T02:53:12.135Z,60.31
2023-04-23T02:58:17.250Z,59.74
2023-04-23T03:03:32.780Z,57.90
2023-04-23T03:08:41.378Z,57.20
2023-04-23T03:13:46.918Z,58.99
2023-04-23T03:18:52.549Z,60.49
2023-04-23T03:23:58.120Z,58.76
2023-04-23T03:29:03.620Z,58.23
2023-04-23T03:34:09.246Z,59.87
2023-04-23T03:39:16.494Z,59.68
2023-04-23T03:44:34.105Z,60.06
2023-04-23T03:49:40.903Z,60.27
2023-04-23T03:54:47.183Z,57.75
2023-04-23T03:59:57.970Z,56.58
2023-04-23T04:05:04.029Z,53.86
2023-04-23T04:10:10.163Z,54.06
2023-04-23T04:15:17.942Z,52.38
2023-04-23T04:20:23.539Z,50.50
2023-04-23T04:25:29.544Z,49.67
2023-04-23T04:30:35.260Z,48.22
2023-04-23T04:35:40.614Z,45.91
2023-04-23T04:40:46.283Z,46.27
2023-04-23T04:45:52.115Z,43.77
2023-04-23T04:50:58.460Z,41.79
2023-04-23T04:56:04.078Z,41.51
2023-04-23T05:01:10.098Z,41.27
2023-04-23T05:06:15.674Z,40.20
2023-04-23T05:11:21.683Z,38.10
2023-04-23T05:16:27.062Z,38.55
2023-04-23T05:21:32.695Z,39.80
2023-04-23T05:26:38.894Z,39.21
2023-04-23T05:31:44.474Z,38.69
2023-04-23T05:36:50.102Z,39.62
2023-04-23T05:41:55.428Z,42.17
2023-04-23T05:47:00.809Z,42.55
2023-04-23T05:52:06.354Z,43.50
2023-04-23T05:57:13.189Z,41.40
2023-04-23T06:02:18.594Z,40.98
2023-04-23T06:07:24.042Z,43.23
2023-04-23T06:12:29.557Z,43.85
2023-04-23T06:17:35.546Z,44.64
2023-04-23T06:22:41.129Z,45.89
2023-04-23T06:27:46.894Z,46.96
2023-04-23T06:32:59.435Z,47.43
2023-04-23T06:38:05.028Z,46.32
2023-04-23T06:43:10.648Z,44.97
2023-04-23T06:48:50.856Z,46.48
2023-04-23T06:53:56.299Z,47.47
2023-04-23T06:59:01.833Z,46.55
2023-04-23T07:04:08.894Z,45.72
2023-04-23T07:09:14.449Z,44.61
2023-04-23T07:14:19.887Z,45.25
2023-04-23T07:19:25.624Z,45.02
2023-04-23T07:24:31.429Z,44.10
2023-04-23T07:29:37.087Z,43.64
2023-04-23T07:34:42.808Z,45.40
2023-04-23T07:39:49.683Z,45.24
2023-04-23T07:44:55.288Z,45.57
2023-04-23T07:50:00.850Z,45.32
2023-04-23T07:55:07.196Z,45.77
2023-04-23T08:00:13.038Z,43.88
2023-04-23T08:05:18.832Z,43.02
2023-04-23T08:10:24.366Z,42.14
2023-04-23T08:15:30.068Z,43.59
2023-04-23T08:20:36.273Z,43.87
2023-04-23T08:25:41.965Z,44.30
2023-04-23T08:30:47.835Z,43.71
2023-04-23T08:35:53.701Z,43.60
2023-04-23T08:41:00.568Z,43.76
2023-04-23T08:46:06.276Z,42.79
2023-04-23T08:51:20.426Z,43.54
2023-04-23T08:56:27.978Z,43.93
2023-04-23T09:01:33.600Z,44.63
2023-04-23T09:06:39.354Z,44.03
2023-04-23T09:11:46.125Z,43.82
2023-04-23T09:16:52.194Z,42.47
2023-04-23T09:22:01.639Z,42.15
2023-04-23T09:27:07.716Z,43.20
2023-04-23T09:32:13.318Z,43.47
2023-04-23T09:37:19.651Z,43.56
2023-04-23T09:42:25.528Z,44.08
2023-04-23T09:47:41.535Z,41.62
2023-04-23T09:52:57.669Z,42.39
2023-04-23T09:58:05.330Z,41.77
2023-04-23T10:03:12.755Z,41.78
2023-04-23T10:08:20.202Z,43.09
2023-04-23T10:13:27.570Z,42.14
2023-04-23T10:18:34.419Z,42.86
2023-04-23T10:23:43.321Z,43.50
2023-04-23T10:28:51.367Z,42.13
2023-04-23T10:33:59.352Z,41.99
2023-04-23T10:39:11.629Z,42.68
2023-04-23T10:44:44.923Z,42.06
2023-04-23T10:49:49.790Z,42.47
2023-04-23T10:55:25.369Z,42.72
2023-04-23T11:00:52.151Z,41.26
2023-04-23T11:05:57.883Z,41.83
2023-04-23T11:11:09.737Z,42.47
2023-04-23T11:16:39.577Z,42.31
2023-04-23T11:22:02.277Z,42.81
2023-04-23T11:27:10.449Z,43.38
2023-04-23T11:32:18.249Z,43.12
2023-04-23T11:37:25.257Z,44.12
2023-04-23T11:42:30.656Z,44.24
2023-04-23T11:47:36.256Z,43.88
2023-04-23T11:52:41.811Z,43.27
2023-04-23T11:57:49.867Z,43.40
2023-04-23T12:03:05.153Z,43.24
2023-04-23T12:08:20.769Z,41.50
2023-04-23T12:13:30.653Z,39.48
2023-04-23T12:18:44.798Z,39.04
2023-04-23T12:23:52.601Z,39.01
2023-04-23T12:29:00.825Z,39.44
2023-04-23T12:34:07.726Z,39.04
2023-04-23T12:39:45.020Z,38.92
2023-04-23T12:44:52.157Z,38.76
2023-04-23T12:49:57.770Z,39.79
2023-04-23T12:55:05.432Z,39.18
2023-04-23T13:00:11.944Z,40.18
2023-04-23T13:05:17.611Z,40.10
2023-04-23T13:10:23.134Z,38.91
2023-04-23T13:15:28.611Z,39.92
2023-04-23T13:20:34.111Z,40.02
2023-04-23T13:25:39.835Z,39.57
2023-04-23T13:30:45.055Z,39.77
2023-04-23T13:35:50.796Z,39.51
2023-04-23T13:40:56.379Z,38.67
2023-04-23T13:46:02.205Z,40.40
2023-04-23T13:51:17.965Z,40.25
2023-04-23T13:56:34.578Z,40.59
2023-04-23T14:01:40.460Z,40.02
2023-04-23T14:06:45.978Z,39.77
2023-04-23T14:11:51.527Z,40.05
2023-04-23T14:16:57.311Z,40.85
2023-04-23T14:22:02.875Z,42.41
2023-04-23T14:27:08.234Z,41.60
2023-04-23T14:32:14.298Z,42.16
2023-04-23T14:37:19.996Z,42.48
2023-04-23T14:42:24.177Z,43.21
2023-04-23T14:47:29.829Z,44.08
2023-04-23T14:52:35.353Z,43.52
2023-04-23T14:57:41.371Z,43.64
2023-04-23T15:02:47.321Z,44.86
2023-04-23T15:07:53.862Z,45.17
2023-04-23T15:13:09.933Z,45.96
2023-04-23T15:18:16.848Z,45.44
2023-04-23T15:23:24.719Z,46.00
2023-04-23T15:28:30.092Z,47.15
2023-04-23T15:33:36.294Z,48.05
2023-04-23T15:38:41.752Z,48.77
2023-04-23T15:43:47.969Z,48.76
2023-04-23T15:48:53.459Z,49.84
2023-04-23T15:53:59.507Z,50.03
2023-04-23T15:59:05.106Z,50.19
2023-04-23T16:04:11.883Z,50.81
2023-04-23T16:09:17.952Z,51.77
2023-04-23T16:14:23.721Z,51.85
2023-04-23T16:19:29.293Z,53.71
2023-04-23T16:24:35.047Z,55.46
2023-04-23T16:29:41.289Z,55.56
2023-04-23T16:34:47.050Z,55.91
2023-04-23T16:39:52.706Z,56.24
2023-04-23T16:44:58.906Z,57.08
2023-04-23T16:50:04.481Z,58.36
2023-04-23T16:55:10.734Z,58.19
2023-04-23T17:00:17.315Z,58.50
2023-04-23T17:05:26.297Z,58.90
2023-04-23T17:10:31.862Z,59.23
2023-04-23T17:15:37.354Z,60.16
2023-04-23T17:20:42.873Z,59.11
2023-04-23T17:25:48.476Z,59.32
2023-04-23T17:30:56.383Z,60.41
2023-04-23T17:36:01.811Z,60.18
2023-04-23T17:41:07.667Z,60.42
2023-04-23T17:46:13.468Z,61.50
2023-04-23T17:51:19.720Z,61.33
2023-04-23T17:56:24.678Z,61.49
2023-04-23T18:01:30.208Z,61.61
2023-04-23T18:06:37.384Z,62.17
2023-04-23T18:11:43.119Z,63.04
2023-04-23T18:16:48.653Z,61.69
2023-04-23T18:21:55.551Z,62.91
2023-04-23T18:27:02.611Z,62.18
2023-04-23T18:32:08.389Z,62.88
2023-04-23T18:37:39.851Z,62.26
2023-04-23T18:42:45.274Z,63.61
2023-04-23T18:48:06.721Z,63.38
2023-04-23T18:53:12.167Z,63.58
2023-04-23T18:58:17.529Z,62.93
2023-04-23T19:03:26.764Z,62.62
2023-04-23T19:08:37.989Z,63.46
2023-04-23T19:13:43.533Z,63.79
2023-04-23T19:18:49.118Z,63.42
2023-04-23T19:23:54.927Z,63.65
2023-04-23T19:29:00.442Z,63.75
2023-04-23T19:34:06.077Z,64.64
2023-04-23T19:39:11.520Z,64.40
2023-04-23T19:44:17.222Z,64.46
2023-04-23T19:49:22.815Z,64.88
2023-04-23T19:54:27.999Z,65.18
2023-04-23T19:59:33.640Z,64.56
2023-04-23T20:04:40.004Z,63.68
2023-04-23T20:09:45.896Z,64.67
2023-04-23T20:14:51.277Z,65.32
2023-04-23T20:20:03.576Z,64.87
2023-04-23T20:25:10.840Z,65.87
2023-04-23T20:30:17.161Z,66.10
2023-04-23T20:35:22.654Z,66.58
2023-04-23T20:40:28.023Z,66.75
2023-04-23T20:45:35.114Z,66.08
2023-04-23T20:50:40.694Z,67.07
2023-04-23T20:55:46.495Z,66.84
2023-04-23T21:00:51.989Z,66.31
2023-04-23T21:05:59.216Z,66.73
2023-04-23T21:11:05.347Z,66.51
2023-04-23T21:16:12.175Z,65.88
2023-04-23T21:21:18.829Z,66.20
2023-04-23T21:26:25.187Z,66.25
2023-04-23T21:31:55.100Z,66.83
2023-04-23T21:37:00.598Z,67.04
2023-04-23T21:42:06.728Z,65.49
2023-04-23T21:47:12.278Z,65.69
2023-04-23T21:52:17.991Z,66.90
2023-04-23T21:57:23.596Z,67.52
2023-04-23T22:02:28.888Z,67.46
2023-04-23T22:07:41.802Z,66.99
2023-04-23T22:12:48.539Z,67.93
2023-04-23T22:17:54.804Z,67.93
2023-04-23T22:23:00.524Z,67.83
2023-04-23T22:28:05.922Z,67.19
2023-04-23T22:33:11.599Z,67.20
2023-04-23T22:38:17.023Z,68.12
2023-04-23T22:43:22.617Z,67.47
2023-04-23T22:48:28.555Z,68.26
2023-04-23T22:53:34.074Z,68.54
2023-04-23T22:58:39.701Z,68.00
2023-04-23T23:03:45.457Z,68.36
2023-04-23T23:08:51.086Z,68.47
2023-04-23T23:13:56.840Z,67.79
2023-04-23T23:19:02.294Z,68.01
2023-04-23T23:24:07.852Z,67.69
2023-04-23T23:29:13.340Z,67.28
2023-04-23T23:34:18.802Z,68.62
2023-04-23T23:39:24.701Z,68.70
2023-04-23T23:44:30.223Z,68.51
2023-04-23T23:49:36.335Z,68.89
2023-04-23T23:54:41.976Z,69.43
2023-04-23T23:59:47.630Z,68.79
